createdAt,value
2023-03-21T00:02:13.666Z,100099.16
2023-03-21T00:05:16.520Z,100095.53
2023-03-21T00:08:19.898Z,100120.16
2023-03-21T00:11:22.253Z,100100.88
2023-03-21T00:14:26.198Z,100099.88
2023-03-21T00:17:31.256Z,100089.06
2023-03-21T00:20:37.999Z,100090.94
2023-03-21T00:23:40.314Z,100089.06
2023-03-21T00:26:42.687Z,100082.78
2023-03-21T00:29:45.014Z,100083.84
2023-03-21T00:32:55.338Z,100077.34
2023-03-21T00:36:04.965Z,100077.47
2023-03-21T00:39:09.881Z,100073.28
2023-03-21T00:42:12.232Z,100054.28
2023-03-21T00:45:15.560Z,100071.19
2023-03-21T00:48:19.095Z,100066.09
2023-03-21T00:51:28.895Z,100065.41
2023-03-21T00:54:31.199Z,100058.81
2023-03-21T00:57:39.315Z,100061.19
2023-03-21T01:00:42.428Z,100048.03
2023-03-21T01:03:50.944Z,100050.56
2023-03-21T01:06:54.197Z,100033.16
2023-03-21T01:09:56.556Z,100055.44
2023-03-21T01:12:59.359Z,100055.28
2023-03-21T01:16:06.978Z,100054.28
2023-03-21T01:19:24.007Z,100050.38
2023-03-21T01:22:27.674Z,100048.38
2023-03-21T01:25:30.315Z,100044.72
2023-03-21T01:28:33.347Z,100053.16
2023-03-21T01:31:35.770Z,100054.78
2023-03-21T01:34:38.212Z,100045.31
2023-03-21T01:37:41.234Z,100040.88
2023-03-21T01:40:45.860Z,100049.34
2023-03-21T01:43:56.663Z,100038.78
2023-03-21T01:47:12.944Z,100037.66
2023-03-21T01:50:37.088Z,100057.25
2023-03-21T01:54:12.757Z,100049.25
2023-03-21T01:57:40.998Z,100043.34
2023-03-21T02:00:50.825Z,100013.66
2023-03-21T02:04:16.957Z,100039.06
2023-03-21T02:07:43.985Z,100038.94
2023-03-21T02:10:51.508Z,100038.47
2023-03-21T02:14:07.649Z,100013.41
2023-03-21T02:17:49.469Z,100050.63
2023-03-21T02:21:33.210Z,100050.50
2023-03-21T02:25:13.402Z,100042.59
2023-03-21T02:28:34.388Z,100042.09
2023-03-21T02:32:09.279Z,100042.59
2023-03-21T02:35:31.078Z,100048.63
2023-03-21T02:38:42.882Z,100050.91
2023-03-21T02:41:49.529Z,100047.78
2023-03-21T02:45:18.936Z,100017.41
2023-03-21T02:48:49.723Z,100033.66
2023-03-21T02:51:54.290Z,100025.22
2023-03-21T02:55:00.112Z,100044.69
2023-03-21T02:58:17.412Z,100054.28
2023-03-21T03:01:26.029Z,100048.50
2023-03-21T03:04:28.926Z,100047.09
2023-03-21T03:07:45.694Z,100051.19
2023-03-21T03:11:00.418Z,100062.28
2023-03-21T03:14:25.432Z,100053.44
2023-03-21T03:17:37.432Z,100057.66
2023-03-21T03:21:04.802Z,100067.09
2023-03-21T03:24:11.547Z,100053.25
2023-03-21T03:27:18.578Z,100064.97
2023-03-21T03:30:23.811Z,100052.00
2023-03-21T03:33:28.264Z,100056.34
2023-03-21T03:36:36.976Z,100035.31
2023-03-21T03:39:51.737Z,100035.00
2023-03-21T03:42:55.511Z,100063.75
2023-03-21T03:46:14.657Z,100056.78
2023-03-21T03:49:24.274Z,100067.22
2023-03-21T03:52:30.014Z,100059.00
2023-03-21T03:55:38.856Z,100062.47
2023-03-21T03:58:49.325Z,100051.22
2023-03-21T04:01:55.150Z,100051.91
2023-03-21T04:04:57.941Z,100051.19
2023-03-21T04:08:00.561Z,100066.28
2023-03-21T04:11:12.867Z,100061.88
2023-03-21T04:14:16.052Z,100056.81
2023-03-21T04:17:20.242Z,100060.13
2023-03-21T04:20:35.992Z,100057.59
2023-03-21T04:23:40.810Z,100050.41
2023-03-21T04:26:44.257Z,100057.63
2023-03-21T04:30:13.124Z,100067.59
2023-03-21T04:33:26.094Z,100062.81
2023-03-21T04:36:38.875Z,100068.47
2023-03-21T04:39:43.224Z,100056.84
2023-03-21T04:42:47.038Z,100048.59
2023-03-21T04:45:50.557Z,100054.91
2023-03-21T04:48:53.377Z,100046.44
2023-03-21T04:51:55.808Z,100038.16
2023-03-21T04:54:58.349Z,100050.56
2023-03-21T04:58:01.363Z,100035.06
2023-03-21T05:01:06.053Z,100041.91
2023-03-21T05:04:08.487Z,100046.91
2023-03-21T05:07:11.438Z,100050.16
2023-03-21T05:10:13.843Z,100053.56
2023-03-21T05:13:17.021Z,100056.56
2023-03-21T05:16:19.339Z,100057.31
2023-03-21T05:19:35.311Z,100062.00
2023-03-21T05:22:40.863Z,100060.84
2023-03-21T05:25:47.099Z,100054.63
2023-03-21T05:28:53.514Z,100048.47
2023-03-21T05:31:57.018Z,100054.63
2023-03-21T05:34:59.649Z,100056.00
2023-03-21T05:38:02.838Z,100064.34
2023-03-21T05:46:55.203Z,100066.63
2023-03-21T05:50:04.581Z,100059.88
2023-03-21T05:53:08.437Z,100075.09
2023-03-21T05:56:10.926Z,100073.00
2023-03-21T05:59:21.978Z,100079.06
2023-03-21T06:02:28.364Z,100086.00
2023-03-21T06:05:34.416Z,100091.56
2023-03-21T06:08:36.891Z,100080.16
2023-03-21T06:11:48.488Z,100092.78
2023-03-21T06:14:53.384Z,100085.47
2023-03-21T06:18:05.837Z,100084.16
2023-03-21T06:21:09.882Z,100085.03
2023-03-21T06:24:14.866Z,100079.47
2023-03-21T06:27:17.525Z,100091.81
2023-03-21T06:30:27.147Z,100084.16
2023-03-21T06:33:39.849Z,100083.09
2023-03-21T06:37:16.194Z,100098.81
2023-03-21T06:41:26.894Z,100099.91
2023-03-21T06:44:35.348Z,100096.25
2023-03-21T06:47:42.300Z,100084.38
2023-03-21T06:50:54.021Z,100084.66
2023-03-21T06:53:58.190Z,100081.34
2023-03-21T06:57:07.514Z,100082.44
2023-03-21T07:00:11.679Z,100090.25
2023-03-21T07:03:19.367Z,100080.81
2023-03-21T07:06:26.627Z,100084.59
2023-03-21T07:09:29.865Z,100080.00
2023-03-21T07:12:37.726Z,100097.50
2023-03-21T07:15:57.480Z,100101.84
2023-03-21T07:19:00.841Z,100097.50
2023-03-21T07:22:03.350Z,100106.13
2023-03-21T07:25:08.325Z,100102.66
2023-03-21T07:28:15.473Z,100104.34
2023-03-21T07:31:17.943Z,100102.16
2023-03-21T07:34:20.863Z,100096.03
2023-03-21T07:37:24.040Z,100105.09
2023-03-21T07:40:27.909Z,100096.84
2023-03-21T07:43:30.506Z,100115.38
2023-03-21T07:46:34.608Z,100087.28
2023-03-21T07:49:37.855Z,100101.19
2023-03-21T07:52:40.336Z,100096.09
2023-03-21T07:55:42.716Z,100097.19
2023-03-21T07:58:45.453Z,100094.09
2023-03-21T08:01:48.062Z,100097.25
2023-03-21T08:04:51.355Z,100066.44
2023-03-21T08:07:53.856Z,100088.75
2023-03-21T08:10:56.244Z,100086.31
2023-03-21T08:13:59.714Z,100079.91
2023-03-21T08:17:02.461Z,100085.63
2023-03-21T08:20:09.244Z,100082.41
2023-03-21T08:23:11.693Z,100073.31
2023-03-21T08:26:18.166Z,100081.16
2023-03-21T08:29:24.426Z,100075.78
2023-03-21T08:32:30.277Z,100066.81
2023-03-21T08:35:35.096Z,100059.59
2023-03-21T08:38:37.675Z,100081.84
2023-03-21T08:41:44.135Z,100059.59
2023-03-21T08:44:51.707Z,100053.38
2023-03-21T08:47:57.538Z,100062.56
2023-03-21T08:51:01.736Z,100078.66
2023-03-21T08:54:06.801Z,100064.19
2023-03-21T08:57:09.553Z,100061.81
2023-03-21T09:00:15.702Z,100082.03
2023-03-21T09:03:22.033Z,100068.22
2023-03-21T09:06:25.027Z,100078.81
2023-03-21T09:09:30.434Z,100081.09
2023-03-21T09:12:38.052Z,100059.78
2023-03-21T09:15:40.998Z,100046.78
2023-03-21T09:18:50.674Z,100054.66
2023-03-21T09:21:53.976Z,100065.22
2023-03-21T09:24:57.564Z,100052.94
2023-03-21T09:28:01.069Z,100065.69
2023-03-21T09:31:04.134Z,100073.16
2023-03-21T09:34:06.557Z,100051.66
2023-03-21T09:37:13.508Z,100057.56
2023-03-21T09:40:24.204Z,100074.88
2023-03-21T09:43:52.168Z,100073.75
2023-03-21T09:47:22.671Z,100077.16
2023-03-21T09:50:32.409Z,100058.13
2023-03-21T09:58:02.467Z,100073.75
2023-03-21T10:07:38.032Z,100057.59
2023-03-21T10:10:50.361Z,100066.28
2023-03-21T10:14:20.106Z,100035.56
2023-03-21T10:17:37.775Z,100063.41
2023-03-21T10:21:07.465Z,100052.47
2023-03-21T10:24:15.899Z,100031.16
2023-03-21T10:27:18.243Z,100051.66
2023-03-21T10:30:39.033Z,100041.28
2023-03-21T10:33:45.980Z,100057.88
2023-03-21T10:36:50.811Z,100042.84
2023-03-21T10:52:21.034Z,100024.72
2023-03-21T10:55:33.811Z,100032.84
2023-03-21T10:58:45.424Z,100021.53
2023-03-21T11:01:55.507Z,100033.69
2023-03-21T11:05:07.004Z,100021.91
2023-03-21T11:08:14.135Z,100039.28
2023-03-21T11:12:19.522Z,99972.94
2023-03-21T11:15:40.334Z,100010.84
2023-03-21T11:18:52.738Z,99984.84
2023-03-21T11:21:58.218Z,99978.50
2023-03-21T11:25:02.617Z,100004.16
2023-03-21T11:28:19.402Z,99996.53
2023-03-21T11:31:24.901Z,99981.69
2023-03-21T11:34:32.556Z,99978.28
2023-03-21T11:37:38.914Z,99985.28
2023-03-21T11:41:09.628Z,99988.13
2023-03-21T11:44:44.299Z,99983.06
2023-03-21T11:47:49.462Z,99982.00
2023-03-21T11:51:03.155Z,99965.50
2023-03-21T11:54:25.431Z,99973.31
2023-03-21T11:58:05.392Z,99966.47
2023-03-21T12:05:24.568Z,99965.03
2023-03-21T12:08:30.126Z,99965.53
2023-03-21T12:12:13.250Z,99965.59
2023-03-21T12:15:39.161Z,99950.53
2023-03-21T12:18:56.750Z,99966.03
2023-03-21T12:23:02.825Z,99962.44
2023-03-21T12:27:09.462Z,99923.53
2023-03-21T12:30:14.212Z,99971.00
2023-03-21T12:33:37.992Z,99958.56
2023-03-21T12:36:54.301Z,99939.38
2023-03-21T12:40:09.979Z,99945.50
2023-03-21T12:43:36.937Z,99955.38
2023-03-21T12:47:01.134Z,99942.31
2023-03-21T12:50:36.954Z,99932.53
2023-03-21T12:53:48.454Z,99942.63
2023-03-21T12:56:58.956Z,99909.19
2023-03-21T13:00:21.965Z,99924.66
2023-03-21T13:03:44.066Z,99930.03
2023-03-21T13:06:47.511Z,99894.88
2023-03-21T13:09:51.827Z,99915.81
2023-03-21T13:13:28.794Z,99911.34
2023-03-21T13:16:33.050Z,99914.41
2023-03-21T13:19:51.679Z,99908.38
2023-03-21T13:22:54.292Z,99896.19
2023-03-21T13:25:57.888Z,99914.81
2023-03-21T13:29:02.540Z,99908.78
2023-03-21T13:32:20.973Z,99898.56
2023-03-21T13:35:29.457Z,99909.13
2023-03-21T13:38:34.473Z,99912.59
2023-03-21T13:41:42.096Z,99916.13
2023-03-21T13:44:50.397Z,99909.41
2023-03-21T13:48:12.963Z,99918.94
2023-03-21T13:51:24.217Z,99898.19
2023-03-21T13:54:30.011Z,99899.94
2023-03-21T13:57:33.309Z,99897.47
2023-03-21T14:00:39.852Z,99882.41
2023-03-21T14:03:42.798Z,99889.03
2023-03-21T14:06:47.936Z,99892.81
2023-03-21T14:09:52.705Z,99869.91
2023-03-21T14:12:55.056Z,99881.00
2023-03-21T14:16:04.566Z,99883.84
2023-03-21T14:19:10.238Z,99864.88
2023-03-21T14:22:13.878Z,99868.09
2023-03-21T14:25:18.214Z,99863.53
2023-03-21T14:28:29.575Z,99859.16
2023-03-21T14:31:33.055Z,99857.53
2023-03-21T14:34:35.887Z,99862.25
2023-03-21T14:37:41.651Z,99866.88
2023-03-21T14:40:53.744Z,99858.25
2023-03-21T14:44:12.610Z,99862.31
2023-03-21T14:47:20.998Z,99835.84
2023-03-21T14:50:32.952Z,99852.03
2023-03-21T14:53:40.949Z,99841.91
2023-03-21T14:56:47.760Z,99845.81
2023-03-21T14:59:56.724Z,99847.22
2023-03-21T15:03:00.964Z,99834.84
2023-03-21T15:06:04.057Z,99847.66
2023-03-21T15:09:06.536Z,99839.03
2023-03-21T15:12:09.393Z,99846.28
2023-03-21T15:15:14.565Z,99839.84
2023-03-21T15:18:23.899Z,99835.88
2023-03-21T15:21:42.388Z,99828.41
2023-03-21T15:24:58.768Z,99829.28
2023-03-21T15:28:01.576Z,99834.53
2023-03-21T15:31:05.265Z,99839.59
2023-03-21T15:34:08.503Z,99831.31
2023-03-21T15:37:37.671Z,99832.72
2023-03-21T15:40:40.552Z,99820.50
2023-03-21T15:43:43.863Z,99829.19
2023-03-21T15:46:52.638Z,99836.75
2023-03-21T15:49:55.876Z,99832.28
2023-03-21T15:53:00.725Z,99846.75
2023-03-21T15:56:06.143Z,99839.28
2023-03-21T15:59:12.996Z,99836.09
2023-03-21T16:02:22.118Z,99839.91
2023-03-21T16:05:30.933Z,99830.75
2023-03-21T16:08:35.917Z,99825.41
2023-03-21T16:11:40.933Z,99828.75
2023-03-21T16:14:43.646Z,99842.19
2023-03-21T16:17:52.101Z,99846.50
2023-03-21T16:20:57.253Z,99835.19
2023-03-21T16:23:59.745Z,99850.50
2023-03-21T16:27:02.581Z,99849.22
2023-03-21T16:30:06.773Z,99849.25
2023-03-21T16:33:12.859Z,99858.94
2023-03-21T16:36:21.531Z,99856.81
2023-03-21T16:39:26.426Z,99859.22
2023-03-21T16:42:28.706Z,99852.22
2023-03-21T16:45:31.824Z,99859.25
2023-03-21T16:48:34.829Z,99863.88
2023-03-21T16:51:37.134Z,99877.63
2023-03-21T16:54:40.874Z,99877.34
2023-03-21T16:57:43.647Z,99875.44
2023-03-21T17:00:46.500Z,99882.97
2023-03-21T17:03:48.988Z,99876.28
2023-03-21T17:06:53.283Z,99883.28
2023-03-21T17:09:55.848Z,99880.63
2023-03-21T17:12:58.322Z,99882.22
2023-03-21T17:16:00.817Z,99884.66
2023-03-21T17:19:04.540Z,99875.75
2023-03-21T17:22:07.229Z,99893.25
2023-03-21T17:25:09.677Z,99893.53
2023-03-21T17:28:12.098Z,99891.09
2023-03-21T17:31:16.267Z,99891.38
2023-03-21T17:34:18.793Z,99891.63
2023-03-21T17:37:26.071Z,99894.31
2023-03-21T17:40:31.139Z,99902.13
2023-03-21T17:43:33.393Z,99897.84
2023-03-21T17:46:37.260Z,99896.75
2023-03-21T17:49:39.665Z,99908.59
2023-03-21T17:52:42.333Z,99896.47
2023-03-21T17:55:44.625Z,99910.16
2023-03-21T17:58:47.328Z,99917.69
2023-03-21T18:01:49.637Z,99921.97
2023-03-21T18:04:52.100Z,99913.06
2023-03-21T18:08:09.423Z,99932.44
2023-03-21T18:11:13.144Z,99922.50
2023-03-21T18:14:19.093Z,99927.84
2023-03-21T18:17:22.753Z,99942.13
2023-03-21T18:20:44.481Z,99935.94
2023-03-21T18:23:50.067Z,99927.84
2023-03-21T18:26:52.411Z,99932.13
2023-03-21T18:30:25.897Z,99921.41
2023-03-21T18:33:17.645Z,99938.28
2023-03-21T18:36:25.417Z,99938.00
2023-03-21T18:39:30.199Z,99939.09
2023-03-21T18:42:32.879Z,99944.16
2023-03-21T18:45:35.286Z,99944.41
2023-03-21T18:48:37.514Z,99947.91
2023-03-21T18:51:40.116Z,99930.53
2023-03-21T18:54:42.943Z,99956.88
2023-03-21T18:57:45.844Z,99945.88
2023-03-21T19:00:49.991Z,99945.09
2023-03-21T19:04:17.812Z,99963.88
2023-03-21T19:07:22.089Z,99949.34
2023-03-21T19:10:24.617Z,99949.84
2023-03-21T19:13:27.226Z,99954.94
2023-03-21T19:16:32.644Z,99953.44
2023-03-21T19:19:42.112Z,99950.75
2023-03-21T19:22:45.509Z,99948.97
2023-03-21T19:25:47.840Z,99954.59
2023-03-21T19:28:50.180Z,99957.53
2023-03-21T19:31:53.144Z,99975.59
2023-03-21T19:34:56.005Z,99969.16
2023-03-21T19:37:58.297Z,99960.03
2023-03-21T19:41:01.583Z,99964.47
2023-03-21T19:44:05.621Z,99969.16
2023-03-21T19:47:07.921Z,99968.75
2023-03-21T19:53:33.064Z,99972.53
2023-03-21T19:56:35.495Z,99973.84
2023-03-21T19:59:38.791Z,99969.00
2023-03-21T20:02:41.355Z,99967.66
2023-03-21T20:05:43.656Z,99978.25
2023-03-21T20:12:08.506Z,99974.25
2023-03-21T20:15:17.786Z,99976.84
2023-03-21T20:18:24.104Z,99979.06
2023-03-21T20:21:34.852Z,99978.91
2023-03-21T20:24:43.601Z,99974.03
2023-03-21T20:27:46.066Z,99983.44
2023-03-21T20:30:53.802Z,99990.22
2023-03-21T20:33:56.341Z,99994.28
2023-03-21T20:36:59.004Z,99976.94
2023-03-21T20:40:01.513Z,99983.66
2023-03-21T20:43:33.438Z,99985.16
2023-03-21T20:46:28.400Z,99995.53
2023-03-21T20:49:30.758Z,99986.97
2023-03-21T20:55:55.877Z,99992.31
2023-03-21T20:59:12.223Z,99990.13
2023-03-21T21:02:17.927Z,99995.13
2023-03-21T21:05:35.712Z,100001.31
2023-03-21T21:08:38.783Z,100004.59
2023-03-21T21:15:03.924Z,100011.00
2023-03-21T21:18:07.639Z,100003.41
2023-03-21T21:21:10.691Z,100004.88
2023-03-21T21:24:14.592Z,100011.91
2023-03-21T21:27:17.262Z,99997.84
2023-03-21T21:30:19.639Z,100000.84
2023-03-21T21:33:22.715Z,100015.50
2023-03-21T21:36:25.079Z,100015.09
2023-03-21T21:39:27.781Z,100022.97
2023-03-21T21:42:30.105Z,100029.91
2023-03-21T21:45:32.556Z,100029.00
2023-03-21T21:48:35.020Z,100045.38
2023-03-21T21:51:37.397Z,100050.16
2023-03-21T21:54:46.040Z,100048.63
2023-03-21T21:57:50.775Z,100045.22
2023-03-21T22:00:53.830Z,100066.84
2023-03-21T22:03:57.681Z,100060.69
2023-03-21T22:07:00.074Z,100062.00
2023-03-21T22:10:02.308Z,100071.56
2023-03-21T22:13:04.641Z,100062.72
2023-03-21T22:16:07.475Z,100072.06
2023-03-21T22:19:09.908Z,100074.00
2023-03-21T22:22:12.218Z,100061.03
2023-03-21T22:25:16.141Z,100073.09
2023-03-21T22:28:22.126Z,100072.88
2023-03-21T22:31:26.176Z,100071.56
2023-03-21T22:34:28.506Z,100062.97
2023-03-21T22:37:32.961Z,100063.78
2023-03-21T22:40:35.563Z,100073.44
2023-03-21T22:43:38.147Z,100073.44
2023-03-21T22:46:40.859Z,100076.91
2023-03-21T22:49:45.561Z,100079.00
2023-03-21T22:52:47.884Z,100067.22
2023-03-21T22:55:50.549Z,100077.03
2023-03-21T22:58:52.986Z,100066.94
2023-03-21T23:01:55.788Z,100065.28
2023-03-21T23:04:58.091Z,100067.97
2023-03-21T23:08:00.566Z,100061.50
2023-03-21T23:11:09.846Z,100070.09
2023-03-21T23:14:15.284Z,100059.97
2023-03-21T23:17:17.728Z,100056.34
2023-03-21T23:20:20.029Z,100069.25
2023-03-21T23:23:22.304Z,100052.78
2023-03-21T23:26:24.594Z,100048.44
2023-03-21T23:29:26.929Z,100054.00
2023-03-21T23:32:29.191Z,100034.69
2023-03-21T23:35:34.779Z,100055.41
2023-03-21T23:38:37.148Z,100061.88
2023-03-21T23:41:41.495Z,100065.59
2023-03-21T23:44:43.803Z,100068.69
2023-03-21T23:47:46.120Z,100059.34
2023-03-21T23:50:48.474Z,100068.13
2023-03-21T23:53:51.535Z,100061.31
2023-03-21T23:56:53.868Z,100062.41
2023-03-21T23:59:56.300Z,100051.19
